Estación Meteorológica Peña el Pijo (Robertgarden) [ 05/25/19 23:11:50 CEST ]

Fecha Hora Presion(HPa) Temp (°C) Humedad % Rocio (°C) Viento ( m/s) Direccion Lluvia 1Hora(mm) Lluvia 24H(mm) LLuvia Total(mm)
2019-May-06 01:01:54 1008.600 12.7 74 8.2         318.05
2019-May-06 02:01:48 1008.300 12.6 77 8.6         318.05
2019-May-06 03:02:29 1008.000 12.6 78 8.8         318.05
2019-May-06 04:02:57 1007.700 14.3 75 9.9         318.05
2019-May-06 05:02:22 1008.100 14.7 72 9.7         318.05
2019-May-06 06:02:08 1008.300 12.9 73 8.2         318.05
2019-May-06 07:01:51 1008.700 11.8 78 8.1         318.05
2019-May-06 08:01:50 1009.300 11.9 82 8.9         318.05
2019-May-06 09:01:50 1009.600 16.4 71 11.2         318.05
2019-May-06 10:01:47 1009.600 19.8 54 10.2         318.05
2019-May-06 11:01:44 1009.700 21.5 45 9.0         318.05
2019-May-06 12:01:45 1010.000 24.1 39 9.3         318.05
2019-May-06 13:01:43 1009.600 24.4 36 8.3         318.05
2019-May-06 14:01:40 1009.600 25.6 31 7.2 2.0 N     318.05
2019-May-06 15:01:33 1009.000 26.3 31 7.8         318.05
2019-May-06 16:01:42 1009.000 26.1 29 6.6         318.05
2019-May-06 17:01:36 1008.700 25.1 28 5.2 0.8 NNE     318.05
2019-May-06 18:01:53 1008.700 24.5 27 4.1         318.05
2019-May-06 19:01:49 1008.700 23.7 29 4.6         318.05
2019-May-06 20:01:48 1008.800 20.9 35 4.8         318.05
2019-May-06 21:01:47 1009.300 19.1 38 4.4         318.05
2019-May-06 22:01:50 1010.200 15.6 46 4.0         318.05
2019-May-06 23:01:42 1010.800 13.3 51 3.4         318.05

Temperatura Máxima:26°    Temperatura Mínima:11°
Presión Máxima:1010.800 Hpa    Presión Mínima:1007.700 Hpa


Volver